sensor_id;sensor_type;location;lat;lon;timestamp;P1;durP1;ratioP1;P2;durP2;ratioP2
14209;SDS011;7188;56.070;12.698;2022-12-20T00:01:45;26.33;;;17.00;;
14209;SDS011;7188;56.070;12.698;2022-12-20T00:04:10;26.73;;;17.13;;
14209;SDS011;7188;56.070;12.698;2022-12-20T00:06:36;28.10;;;17.17;;
14209;SDS011;7188;56.070;12.698;2022-12-20T00:09:03;27.23;;;17.33;;
14209;SDS011;7188;56.070;12.698;2022-12-20T00:11:31;30.47;;;18.60;;
14209;SDS011;7188;56.070;12.698;2022-12-20T00:14:15;32.10;;;18.97;;
14209;SDS011;7188;56.070;12.698;2022-12-20T00:16:41;31.73;;;18.73;;
14209;SDS011;7188;56.070;12.698;2022-12-20T00:19:08;33.60;;;20.43;;
14209;SDS011;7188;56.070;12.698;2022-12-20T00:21:53;50.07;;;22.97;;
14209;SDS011;7188;56.070;12.698;2022-12-20T00:24:19;36.10;;;20.53;;
14209;SDS011;7188;56.070;12.698;2022-12-20T00:26:44;38.20;;;22.13;;
14209;SDS011;7188;56.070;12.698;2022-12-20T00:29:10;37.47;;;20.63;;
14209;SDS011;7188;56.070;12.698;2022-12-20T00:31:36;35.53;;;18.93;;
14209;SDS011;7188;56.070;12.698;2022-12-20T00:34:01;41.70;;;22.03;;
14209;SDS011;7188;56.070;12.698;2022-12-20T00:36:28;47.10;;;22.90;;
14209;SDS011;7188;56.070;12.698;2022-12-20T00:38:56;37.23;;;21.37;;
14209;SDS011;7188;56.070;12.698;2022-12-20T00:41:24;34.33;;;22.00;;
14209;SDS011;7188;56.070;12.698;2022-12-20T00:43:54;44.83;;;23.43;;
14209;SDS011;7188;56.070;12.698;2022-12-20T00:46:20;41.93;;;23.10;;
14209;SDS011;7188;56.070;12.698;2022-12-20T00:48:47;46.67;;;22.97;;
14209;SDS011;7188;56.070;12.698;2022-12-20T00:51:17;44.23;;;24.33;;
14209;SDS011;7188;56.070;12.698;2022-12-20T00:53:45;70.30;;;26.93;;
14209;SDS011;7188;56.070;12.698;2022-12-20T00:56:11;45.53;;;24.47;;
14209;SDS011;7188;56.070;12.698;2022-12-20T00:58:39;45.90;;;24.03;;
14209;SDS011;7188;56.070;12.698;2022-12-20T01:01:13;54.80;;;25.27;;
14209;SDS011;7188;56.070;12.698;2022-12-20T01:03:44;47.97;;;25.43;;
14209;SDS011;7188;56.070;12.698;2022-12-20T01:06:09;46.37;;;25.43;;
14209;SDS011;7188;56.070;12.698;2022-12-20T01:08:35;50.00;;;25.80;;
14209;SDS011;7188;56.070;12.698;2022-12-20T01:13:27;49.03;;;28.27;;
14209;SDS011;7188;56.070;12.698;2022-12-20T01:15:53;49.33;;;26.67;;
14209;SDS011;7188;56.070;12.698;2022-12-20T01:18:18;48.40;;;27.17;;
14209;SDS011;7188;56.070;12.698;2022-12-20T01:20:44;45.30;;;26.40;;
14209;SDS011;7188;56.070;12.698;2022-12-20T01:23:10;50.57;;;26.90;;
14209;SDS011;7188;56.070;12.698;2022-12-20T01:25:35;51.90;;;28.17;;
14209;SDS011;7188;56.070;12.698;2022-12-20T01:28:01;52.77;;;27.13;;
14209;SDS011;7188;56.070;12.698;2022-12-20T01:30:26;54.27;;;27.97;;
14209;SDS011;7188;56.070;12.698;2022-12-20T01:32:52;54.27;;;29.53;;
14209;SDS011;7188;56.070;12.698;2022-12-20T01:35:18;55.63;;;28.77;;
14209;SDS011;7188;56.070;12.698;2022-12-20T01:37:43;52.70;;;29.43;;
14209;SDS011;7188;56.070;12.698;2022-12-20T01:40:09;56.00;;;29.13;;
14209;SDS011;7188;56.070;12.698;2022-12-20T01:42:35;52.20;;;28.70;;
14209;SDS011;7188;56.070;12.698;2022-12-20T01:45:01;56.37;;;28.50;;
14209;SDS011;7188;56.070;12.698;2022-12-20T01:47:31;58.13;;;30.87;;
14209;SDS011;7188;56.070;12.698;2022-12-20T01:49:59;64.80;;;34.27;;
14209;SDS011;7188;56.070;12.698;2022-12-20T01:52:31;60.97;;;31.77;;
14209;SDS011;7188;56.070;12.698;2022-12-20T01:55:06;59.60;;;32.63;;
14209;SDS011;7188;56.070;12.698;2022-12-20T01:57:49;68.43;;;34.70;;
14209;SDS011;7188;56.070;12.698;2022-12-20T02:00:19;64.27;;;34.20;;
14209;SDS011;7188;56.070;12.698;2022-12-20T02:02:47;63.30;;;33.03;;
14209;SDS011;7188;56.070;12.698;2022-12-20T02:05:14;61.93;;;33.43;;
14209;SDS011;7188;56.070;12.698;2022-12-20T02:07:50;68.63;;;34.53;;
14209;SDS011;7188;56.070;12.698;2022-12-20T02:10:18;65.03;;;34.60;;
14209;SDS011;7188;56.070;12.698;2022-12-20T02:12:47;63.83;;;35.57;;
14209;SDS011;7188;56.070;12.698;2022-12-20T02:15:23;60.77;;;35.00;;
14209;SDS011;7188;56.070;12.698;2022-12-20T02:18:15;64.40;;;35.43;;
14209;SDS011;7188;56.070;12.698;2022-12-20T02:31:20;63.80;;;36.00;;
14209;SDS011;7188;56.070;12.698;2022-12-20T02:33:51;67.17;;;35.13;;
14209;SDS011;7188;56.070;12.698;2022-12-20T02:36:19;65.10;;;35.97;;
14209;SDS011;7188;56.070;12.698;2022-12-20T02:38:45;71.50;;;37.07;;
14209;SDS011;7188;56.070;12.698;2022-12-20T02:41:12;64.60;;;38.00;;
14209;SDS011;7188;56.070;12.698;2022-12-20T02:44:09;66.77;;;40.00;;
14209;SDS011;7188;56.070;12.698;2022-12-20T02:46:57;64.80;;;37.00;;
14209;SDS011;7188;56.070;12.698;2022-12-20T02:49:27;65.77;;;36.07;;
14209;SDS011;7188;56.070;12.698;2022-12-20T02:51:56;66.33;;;36.33;;
14209;SDS011;7188;56.070;12.698;2022-12-20T02:54:24;70.07;;;37.57;;
14209;SDS011;7188;56.070;12.698;2022-12-20T02:56:53;62.60;;;35.83;;
14209;SDS011;7188;56.070;12.698;2022-12-20T02:59:31;65.27;;;38.03;;
14209;SDS011;7188;56.070;12.698;2022-12-20T03:02:12;59.23;;;35.60;;
14209;SDS011;7188;56.070;12.698;2022-12-20T03:04:38;58.60;;;35.63;;
14209;SDS011;7188;56.070;12.698;2022-12-20T03:07:10;59.97;;;35.13;;
14209;SDS011;7188;56.070;12.698;2022-12-20T03:09:39;61.57;;;35.97;;
14209;SDS011;7188;56.070;12.698;2022-12-20T03:12:06;62.80;;;36.97;;
14209;SDS011;7188;56.070;12.698;2022-12-20T03:14:33;61.43;;;36.50;;
14209;SDS011;7188;56.070;12.698;2022-12-20T03:16:59;61.80;;;36.70;;
14209;SDS011;7188;56.070;12.698;2022-12-20T03:22:37;58.87;;;35.10;;
14209;SDS011;7188;56.070;12.698;2022-12-20T03:25:03;63.40;;;36.33;;
14209;SDS011;7188;56.070;12.698;2022-12-20T03:27:29;57.27;;;35.40;;
14209;SDS011;7188;56.070;12.698;2022-12-20T03:29:55;56.43;;;36.67;;
14209;SDS011;7188;56.070;12.698;2022-12-20T03:32:21;59.20;;;35.40;;
14209;SDS011;7188;56.070;12.698;2022-12-20T03:34:46;58.97;;;36.90;;
14209;SDS011;7188;56.070;12.698;2022-12-20T03:37:12;58.23;;;36.50;;
14209;SDS011;7188;56.070;12.698;2022-12-20T03:39:38;63.80;;;37.63;;
14209;SDS011;7188;56.070;12.698;2022-12-20T03:42:04;54.20;;;33.60;;
14209;SDS011;7188;56.070;12.698;2022-12-20T03:44:29;61.27;;;37.50;;
14209;SDS011;7188;56.070;12.698;2022-12-20T03:46:55;59.97;;;36.50;;
14209;SDS011;7188;56.070;12.698;2022-12-20T03:49:20;59.77;;;35.63;;
14209;SDS011;7188;56.070;12.698;2022-12-20T03:51:46;54.33;;;35.17;;
14209;SDS011;7188;56.070;12.698;2022-12-20T03:54:11;54.77;;;34.47;;
14209;SDS011;7188;56.070;12.698;2022-12-20T03:56:37;57.10;;;34.23;;
14209;SDS011;7188;56.070;12.698;2022-12-20T03:59:03;53.70;;;33.80;;
14209;SDS011;7188;56.070;12.698;2022-12-20T04:01:28;60.40;;;35.03;;
14209;SDS011;7188;56.070;12.698;2022-12-20T04:03:54;58.27;;;34.30;;
14209;SDS011;7188;56.070;12.698;2022-12-20T04:06:20;57.37;;;35.13;;
14209;SDS011;7188;56.070;12.698;2022-12-20T04:08:47;53.97;;;33.00;;
14209;SDS011;7188;56.070;12.698;2022-12-20T04:11:14;49.67;;;33.87;;
14209;SDS011;7188;56.070;12.698;2022-12-20T04:16:10;60.70;;;35.17;;
14209;SDS011;7188;56.070;12.698;2022-12-20T04:18:37;52.50;;;31.63;;
14209;SDS011;7188;56.070;12.698;2022-12-20T04:21:03;46.80;;;29.87;;
14209;SDS011;7188;56.070;12.698;2022-12-20T04:23:29;50.97;;;32.47;;
14209;SDS011;7188;56.070;12.698;2022-12-20T04:25:54;46.57;;;30.00;;
14209;SDS011;7188;56.070;12.698;2022-12-20T04:28:20;43.47;;;30.27;;
14209;SDS011;7188;56.070;12.698;2022-12-20T04:30:46;48.10;;;31.03;;
14209;SDS011;7188;56.070;12.698;2022-12-20T04:33:11;45.07;;;29.77;;
14209;SDS011;7188;56.070;12.698;2022-12-20T04:35:37;44.27;;;29.67;;
14209;SDS011;7188;56.070;12.698;2022-12-20T04:38:03;40.57;;;27.93;;
14209;SDS011;7188;56.070;12.698;2022-12-20T04:40:29;47.10;;;31.20;;
14209;SDS011;7188;56.070;12.698;2022-12-20T04:42:55;41.43;;;28.03;;
14209;SDS011;7188;56.070;12.698;2022-12-20T04:45:20;47.23;;;30.27;;
14209;SDS011;7188;56.070;12.698;2022-12-20T04:47:46;44.80;;;30.67;;
14209;SDS011;7188;56.070;12.698;2022-12-20T04:50:12;42.83;;;29.60;;
14209;SDS011;7188;56.070;12.698;2022-12-20T04:52:37;41.17;;;27.37;;
14209;SDS011;7188;56.070;12.698;2022-12-20T04:55:22;49.03;;;30.67;;
14209;SDS011;7188;56.070;12.698;2022-12-20T04:57:47;49.77;;;30.53;;
14209;SDS011;7188;56.070;12.698;2022-12-20T05:00:13;41.33;;;27.37;;
14209;SDS011;7188;56.070;12.698;2022-12-20T05:02:39;43.70;;;29.30;;
14209;SDS011;7188;56.070;12.698;2022-12-20T05:05:05;45.73;;;30.03;;
14209;SDS011;7188;56.070;12.698;2022-12-20T05:07:31;46.73;;;30.00;;
14209;SDS011;7188;56.070;12.698;2022-12-20T05:09:57;41.83;;;27.57;;
14209;SDS011;7188;56.070;12.698;2022-12-20T05:12:22;43.40;;;29.20;;
14209;SDS011;7188;56.070;12.698;2022-12-20T05:14:48;44.17;;;28.47;;
14209;SDS011;7188;56.070;12.698;2022-12-20T05:17:14;45.43;;;29.93;;
14209;SDS011;7188;56.070;12.698;2022-12-20T05:19:39;47.90;;;28.57;;
14209;SDS011;7188;56.070;12.698;2022-12-20T05:22:05;45.07;;;29.00;;
14209;SDS011;7188;56.070;12.698;2022-12-20T05:25:02;46.60;;;29.73;;
14209;SDS011;7188;56.070;12.698;2022-12-20T05:27:47;36.60;;;25.17;;
14209;SDS011;7188;56.070;12.698;2022-12-20T05:30:12;42.40;;;29.10;;
14209;SDS011;7188;56.070;12.698;2022-12-20T05:32:40;41.40;;;28.13;;
14209;SDS011;7188;56.070;12.698;2022-12-20T05:35:06;50.33;;;31.97;;
14209;SDS011;7188;56.070;12.698;2022-12-20T05:37:32;47.07;;;29.93;;
14209;SDS011;7188;56.070;12.698;2022-12-20T05:39:58;44.53;;;31.60;;
14209;SDS011;7188;56.070;12.698;2022-12-20T05:42:24;48.57;;;30.30;;
14209;SDS011;7188;56.070;12.698;2022-12-20T07:56:46;69.57;;;41.23;;
14209;SDS011;7188;56.070;12.698;2022-12-20T07:59:16;69.80;;;36.97;;
14209;SDS011;7188;56.070;12.698;2022-12-20T08:01:47;86.57;;;43.90;;
14209;SDS011;7188;56.070;12.698;2022-12-20T08:04:13;75.00;;;41.83;;
14209;SDS011;7188;56.070;12.698;2022-12-20T08:06:43;78.47;;;42.53;;
14209;SDS011;7188;56.070;12.698;2022-12-20T08:09:09;74.20;;;41.67;;
14209;SDS011;7188;56.070;12.698;2022-12-20T08:11:39;76.50;;;42.90;;
14209;SDS011;7188;56.070;12.698;2022-12-20T08:14:07;82.80;;;43.87;;
14209;SDS011;7188;56.070;12.698;2022-12-20T08:16:33;74.40;;;42.00;;
14209;SDS011;7188;56.070;12.698;2022-12-20T08:18:59;78.23;;;41.77;;
14209;SDS011;7188;56.070;12.698;2022-12-20T08:21:25;76.83;;;42.70;;
14209;SDS011;7188;56.070;12.698;2022-12-20T08:23:51;77.20;;;41.83;;
14209;SDS011;7188;56.070;12.698;2022-12-20T09:19:17;69.97;;;38.57;;
14209;SDS011;7188;56.070;12.698;2022-12-20T09:21:42;61.27;;;36.70;;
14209;SDS011;7188;56.070;12.698;2022-12-20T09:24:08;65.60;;;36.90;;
14209;SDS011;7188;56.070;12.698;2022-12-20T09:26:34;55.50;;;36.37;;
14209;SDS011;7188;56.070;12.698;2022-12-20T09:29:00;57.20;;;35.87;;
14209;SDS011;7188;56.070;12.698;2022-12-20T09:31:26;50.63;;;34.77;;
14209;SDS011;7188;56.070;12.698;2022-12-20T09:33:52;53.57;;;33.90;;
14209;SDS011;7188;56.070;12.698;2022-12-20T09:36:21;52.53;;;32.40;;
14209;SDS011;7188;56.070;12.698;2022-12-20T09:38:48;61.93;;;36.47;;
14209;SDS011;7188;56.070;12.698;2022-12-20T09:46:58;55.43;;;35.07;;
14209;SDS011;7188;56.070;12.698;2022-12-20T09:49:29;57.57;;;35.70;;
14209;SDS011;7188;56.070;12.698;2022-12-20T10:00:35;58.50;;;36.07;;
14209;SDS011;7188;56.070;12.698;2022-12-20T10:03:05;67.23;;;38.47;;
14209;SDS011;7188;56.070;12.698;2022-12-20T10:05:35;59.00;;;36.17;;
14209;SDS011;7188;56.070;12.698;2022-12-20T10:08:15;60.93;;;36.23;;
14209;SDS011;7188;56.070;12.698;2022-12-20T10:10:53;57.80;;;36.07;;
14209;SDS011;7188;56.070;12.698;2022-12-20T10:24:32;53.90;;;33.47;;
14209;SDS011;7188;56.070;12.698;2022-12-20T10:29:36;49.70;;;32.70;;
14209;SDS011;7188;56.070;12.698;2022-12-20T10:32:07;47.97;;;30.60;;
14209;SDS011;7188;56.070;12.698;2022-12-20T10:34:41;58.67;;;33.80;;
14209;SDS011;7188;56.070;12.698;2022-12-20T10:37:35;61.37;;;35.33;;
14209;SDS011;7188;56.070;12.698;2022-12-20T10:40:01;59.30;;;37.67;;
14209;SDS011;7188;56.070;12.698;2022-12-20T10:47:40;49.90;;;31.30;;
14209;SDS011;7188;56.070;12.698;2022-12-20T10:52:42;48.80;;;27.80;;
14209;SDS011;7188;56.070;12.698;2022-12-20T10:58:04;48.10;;;28.93;;
14209;SDS011;7188;56.070;12.698;2022-12-20T11:00:42;49.43;;;29.30;;
14209;SDS011;7188;56.070;12.698;2022-12-20T11:05:51;46.63;;;26.33;;
14209;SDS011;7188;56.070;12.698;2022-12-20T11:08:40;46.27;;;28.13;;
14209;SDS011;7188;56.070;12.698;2022-12-20T11:13:40;49.33;;;29.17;;
14209;SDS011;7188;56.070;12.698;2022-12-20T11:16:23;47.87;;;28.53;;
14209;SDS011;7188;56.070;12.698;2022-12-20T11:21:36;53.60;;;30.20;;
14209;SDS011;7188;56.070;12.698;2022-12-20T11:30:19;55.13;;;29.50;;
14209;SDS011;7188;56.070;12.698;2022-12-20T11:49:25;36.20;;;23.43;;
14209;SDS011;7188;56.070;12.698;2022-12-20T11:52:36;38.53;;;24.63;;
14209;SDS011;7188;56.070;12.698;2022-12-20T11:55:17;39.93;;;25.20;;
14209;SDS011;7188;56.070;12.698;2022-12-20T12:00:35;38.07;;;26.37;;
14209;SDS011;7188;56.070;12.698;2022-12-20T12:03:11;36.63;;;25.23;;
14209;SDS011;7188;56.070;12.698;2022-12-20T12:06:16;42.90;;;27.27;;
14209;SDS011;7188;56.070;12.698;2022-12-20T12:08:49;48.20;;;28.57;;
14209;SDS011;7188;56.070;12.698;2022-12-20T12:11:18;47.07;;;27.30;;
14209;SDS011;7188;56.070;12.698;2022-12-20T12:13:44;40.43;;;26.17;;
14209;SDS011;7188;56.070;12.698;2022-12-20T12:16:23;41.80;;;28.03;;
14209;SDS011;7188;56.070;12.698;2022-12-20T12:18:53;36.33;;;25.27;;
14209;SDS011;7188;56.070;12.698;2022-12-20T12:21:23;39.67;;;24.53;;
14209;SDS011;7188;56.070;12.698;2022-12-20T12:26:26;43.47;;;27.17;;
14209;SDS011;7188;56.070;12.698;2022-12-20T12:28:57;37.10;;;23.83;;
14209;SDS011;7188;56.070;12.698;2022-12-20T12:31:42;42.43;;;25.73;;
14209;SDS011;7188;56.070;12.698;2022-12-20T12:37:13;39.47;;;25.37;;
14209;SDS011;7188;56.070;12.698;2022-12-20T12:39:55;34.57;;;23.80;;
14209;SDS011;7188;56.070;12.698;2022-12-20T12:45:25;43.37;;;26.43;;
14209;SDS011;7188;56.070;12.698;2022-12-20T12:50:36;31.73;;;23.57;;
14209;SDS011;7188;56.070;12.698;2022-12-20T12:53:14;36.23;;;22.70;;
14209;SDS011;7188;56.070;12.698;2022-12-20T12:55:47;35.10;;;23.53;;
14209;SDS011;7188;56.070;12.698;2022-12-20T13:03:34;30.70;;;21.77;;
14209;SDS011;7188;56.070;12.698;2022-12-20T13:09:09;30.63;;;22.63;;
14209;SDS011;7188;56.070;12.698;2022-12-20T13:11:42;32.57;;;22.47;;
14209;SDS011;7188;56.070;12.698;2022-12-20T13:19:37;36.27;;;23.80;;
14209;SDS011;7188;56.070;12.698;2022-12-20T13:22:18;37.23;;;24.30;;
14209;SDS011;7188;56.070;12.698;2022-12-20T13:24:56;48.37;;;29.90;;
14209;SDS011;7188;56.070;12.698;2022-12-20T13:40:18;62.20;;;35.23;;
14209;SDS011;7188;56.070;12.698;2022-12-20T13:48:19;45.17;;;29.93;;
14209;SDS011;7188;56.070;12.698;2022-12-20T13:51:10;51.93;;;28.97;;
14209;SDS011;7188;56.070;12.698;2022-12-20T14:07:16;47.80;;;29.73;;
14209;SDS011;7188;56.070;12.698;2022-12-20T14:30:24;52.50;;;32.43;;
14209;SDS011;7188;56.070;12.698;2022-12-20T14:32:52;56.03;;;33.77;;
14209;SDS011;7188;56.070;12.698;2022-12-20T14:38:43;54.80;;;31.77;;
14209;SDS011;7188;56.070;12.698;2022-12-20T14:43:57;55.97;;;35.10;;
14209;SDS011;7188;56.070;12.698;2022-12-20T14:46:26;62.27;;;36.10;;
14209;SDS011;7188;56.070;12.698;2022-12-20T14:51:41;66.50;;;37.00;;
14209;SDS011;7188;56.070;12.698;2022-12-20T14:54:11;62.83;;;36.83;;
14209;SDS011;7188;56.070;12.698;2022-12-20T14:56:45;65.10;;;38.03;;
14209;SDS011;7188;56.070;12.698;2022-12-20T14:59:15;62.50;;;37.27;;
14209;SDS011;7188;56.070;12.698;2022-12-20T15:01:42;66.43;;;36.30;;
14209;SDS011;7188;56.070;12.698;2022-12-20T15:04:21;61.17;;;35.53;;
14209;SDS011;7188;56.070;12.698;2022-12-20T15:06:47;65.60;;;36.00;;
14209;SDS011;7188;56.070;12.698;2022-12-20T15:09:15;58.90;;;34.87;;
14209;SDS011;7188;56.070;12.698;2022-12-20T15:11:41;61.03;;;34.57;;
14209;SDS011;7188;56.070;12.698;2022-12-20T15:16:57;60.93;;;33.27;;
14209;SDS011;7188;56.070;12.698;2022-12-20T15:19:22;58.83;;;33.67;;
14209;SDS011;7188;56.070;12.698;2022-12-20T15:21:48;52.00;;;33.30;;
14209;SDS011;7188;56.070;12.698;2022-12-20T15:27:36;60.20;;;33.90;;
14209;SDS011;7188;56.070;12.698;2022-12-20T15:30:04;56.07;;;33.13;;
14209;SDS011;7188;56.070;12.698;2022-12-20T15:32:31;59.53;;;35.37;;
14209;SDS011;7188;56.070;12.698;2022-12-20T15:34:57;59.27;;;34.20;;
14209;SDS011;7188;56.070;12.698;2022-12-20T15:37:23;63.37;;;35.60;;
14209;SDS011;7188;56.070;12.698;2022-12-20T15:39:49;64.63;;;34.97;;
14209;SDS011;7188;56.070;12.698;2022-12-20T15:42:15;61.67;;;35.10;;
14209;SDS011;7188;56.070;12.698;2022-12-20T15:44:42;65.33;;;36.70;;
14209;SDS011;7188;56.070;12.698;2022-12-20T15:47:12;53.83;;;33.23;;
14209;SDS011;7188;56.070;12.698;2022-12-20T15:49:38;61.00;;;34.70;;
14209;SDS011;7188;56.070;12.698;2022-12-20T15:52:20;62.20;;;36.13;;
14209;SDS011;7188;56.070;12.698;2022-12-20T15:54:47;60.80;;;33.90;;
14209;SDS011;7188;56.070;12.698;2022-12-20T15:57:16;54.83;;;33.53;;
14209;SDS011;7188;56.070;12.698;2022-12-20T15:59:45;51.13;;;34.60;;
14209;SDS011;7188;56.070;12.698;2022-12-20T16:02:19;54.73;;;34.20;;
14209;SDS011;7188;56.070;12.698;2022-12-20T16:04:47;56.27;;;33.20;;
14209;SDS011;7188;56.070;12.698;2022-12-20T16:07:14;55.03;;;33.70;;
14209;SDS011;7188;56.070;12.698;2022-12-20T16:09:40;54.10;;;33.03;;
14209;SDS011;7188;56.070;12.698;2022-12-20T16:12:10;54.53;;;33.57;;
14209;SDS011;7188;56.070;12.698;2022-12-20T16:14:43;55.03;;;33.83;;
14209;SDS011;7188;56.070;12.698;2022-12-20T16:17:11;59.37;;;33.57;;
14209;SDS011;7188;56.070;12.698;2022-12-20T16:19:41;56.87;;;34.57;;
14209;SDS011;7188;56.070;12.698;2022-12-20T16:22:12;54.53;;;34.50;;
14209;SDS011;7188;56.070;12.698;2022-12-20T16:24:46;61.70;;;35.33;;
14209;SDS011;7188;56.070;12.698;2022-12-20T16:27:12;57.07;;;33.93;;
14209;SDS011;7188;56.070;12.698;2022-12-20T16:29:37;65.47;;;39.08;;
14209;SDS011;7188;56.070;12.698;2022-12-20T16:32:08;53.57;;;34.70;;
14209;SDS011;7188;56.070;12.698;2022-12-20T16:34:41;57.47;;;36.23;;
14209;SDS011;7188;56.070;12.698;2022-12-20T16:37:07;60.43;;;35.87;;
14209;SDS011;7188;56.070;12.698;2022-12-20T16:39:32;62.10;;;35.30;;
14209;SDS011;7188;56.070;12.698;2022-12-20T16:41:58;53.43;;;34.73;;
14209;SDS011;7188;56.070;12.698;2022-12-20T16:44:25;54.30;;;34.47;;
14209;SDS011;7188;56.070;12.698;2022-12-20T16:46:51;51.30;;;33.00;;
14209;SDS011;7188;56.070;12.698;2022-12-20T16:49:16;55.80;;;33.57;;
14209;SDS011;7188;56.070;12.698;2022-12-20T16:51:43;55.63;;;34.60;;
14209;SDS011;7188;56.070;12.698;2022-12-20T16:54:20;59.53;;;34.43;;
14209;SDS011;7188;56.070;12.698;2022-12-20T16:56:47;50.80;;;33.13;;
14209;SDS011;7188;56.070;12.698;2022-12-20T16:59:15;55.27;;;32.77;;
14209;SDS011;7188;56.070;12.698;2022-12-20T17:01:41;54.43;;;34.23;;
14209;SDS011;7188;56.070;12.698;2022-12-20T17:04:12;47.97;;;30.60;;
14209;SDS011;7188;56.070;12.698;2022-12-20T17:06:39;57.20;;;33.03;;
14209;SDS011;7188;56.070;12.698;2022-12-20T17:09:06;53.13;;;32.57;;
14209;SDS011;7188;56.070;12.698;2022-12-20T17:11:32;57.93;;;32.83;;
14209;SDS011;7188;56.070;12.698;2022-12-20T17:13:58;62.43;;;36.60;;
14209;SDS011;7188;56.070;12.698;2022-12-20T17:16:24;56.90;;;33.63;;
14209;SDS011;7188;56.070;12.698;2022-12-20T17:18:51;60.37;;;34.33;;
14209;SDS011;7188;56.070;12.698;2022-12-20T17:23:50;53.97;;;31.93;;
14209;SDS011;7188;56.070;12.698;2022-12-20T17:26:18;54.43;;;33.03;;
14209;SDS011;7188;56.070;12.698;2022-12-20T17:28:48;56.00;;;33.97;;
14209;SDS011;7188;56.070;12.698;2022-12-20T17:33:47;53.33;;;33.27;;
14209;SDS011;7188;56.070;12.698;2022-12-20T17:36:13;61.53;;;34.93;;
14209;SDS011;7188;56.070;12.698;2022-12-20T17:38:39;61.00;;;35.40;;
14209;SDS011;7188;56.070;12.698;2022-12-20T17:41:05;64.73;;;34.70;;
14209;SDS011;7188;56.070;12.698;2022-12-20T17:43:45;55.97;;;34.77;;
14209;SDS011;7188;56.070;12.698;2022-12-20T17:46:10;57.30;;;33.73;;
14209;SDS011;7188;56.070;12.698;2022-12-20T17:48:37;53.57;;;32.67;;
14209;SDS011;7188;56.070;12.698;2022-12-20T17:51:07;56.17;;;32.70;;
14209;SDS011;7188;56.070;12.698;2022-12-20T17:53:45;51.73;;;32.33;;
14209;SDS011;7188;56.070;12.698;2022-12-20T17:56:13;49.37;;;30.63;;
14209;SDS011;7188;56.070;12.698;2022-12-20T17:58:41;53.13;;;33.07;;
14209;SDS011;7188;56.070;12.698;2022-12-20T18:01:20;56.90;;;31.57;;
14209;SDS011;7188;56.070;12.698;2022-12-20T18:03:48;47.87;;;30.70;;
14209;SDS011;7188;56.070;12.698;2022-12-20T18:06:15;46.10;;;30.57;;
14209;SDS011;7188;56.070;12.698;2022-12-20T18:08:41;53.63;;;32.50;;
14209;SDS011;7188;56.070;12.698;2022-12-20T18:11:07;48.67;;;31.80;;
14209;SDS011;7188;56.070;12.698;2022-12-20T18:13:34;50.37;;;28.77;;
14209;SDS011;7188;56.070;12.698;2022-12-20T18:16:06;50.00;;;29.10;;
14209;SDS011;7188;56.070;12.698;2022-12-20T18:18:32;56.60;;;30.90;;
14209;SDS011;7188;56.070;12.698;2022-12-20T18:21:02;46.20;;;28.77;;
14209;SDS011;7188;56.070;12.698;2022-12-20T18:23:28;50.83;;;27.77;;
14209;SDS011;7188;56.070;12.698;2022-12-20T18:26:15;52.57;;;31.17;;
14209;SDS011;7188;56.070;12.698;2022-12-20T18:28:44;47.73;;;30.33;;
14209;SDS011;7188;56.070;12.698;2022-12-20T18:31:13;51.27;;;30.47;;
14209;SDS011;7188;56.070;12.698;2022-12-20T18:33:44;49.87;;;30.33;;
14209;SDS011;7188;56.070;12.698;2022-12-20T18:36:14;45.23;;;29.67;;
14209;SDS011;7188;56.070;12.698;2022-12-20T18:38:45;47.33;;;28.73;;
14209;SDS011;7188;56.070;12.698;2022-12-20T18:41:13;49.13;;;28.93;;
14209;SDS011;7188;56.070;12.698;2022-12-20T18:43:46;46.70;;;29.83;;
14209;SDS011;7188;56.070;12.698;2022-12-20T18:46:13;53.27;;;32.03;;
14209;SDS011;7188;56.070;12.698;2022-12-20T18:48:41;57.63;;;33.27;;
14209;SDS011;7188;56.070;12.698;2022-12-20T19:01:09;59.07;;;33.53;;
14209;SDS011;7188;56.070;12.698;2022-12-20T19:03:37;57.53;;;33.33;;
14209;SDS011;7188;56.070;12.698;2022-12-20T19:06:02;52.27;;;32.07;;
14209;SDS011;7188;56.070;12.698;2022-12-20T19:08:29;61.20;;;34.90;;
14209;SDS011;7188;56.070;12.698;2022-12-20T19:10:58;63.43;;;33.47;;
14209;SDS011;7188;56.070;12.698;2022-12-20T19:13:28;58.23;;;34.37;;
14209;SDS011;7188;56.070;12.698;2022-12-20T19:16:04;56.70;;;34.33;;
14209;SDS011;7188;56.070;12.698;2022-12-20T19:18:31;59.73;;;33.90;;
14209;SDS011;7188;56.070;12.698;2022-12-20T19:21:04;56.40;;;34.00;;
14209;SDS011;7188;56.070;12.698;2022-12-20T19:23:31;58.03;;;34.17;;
14209;SDS011;7188;56.070;12.698;2022-12-20T19:26:03;56.57;;;31.73;;
14209;SDS011;7188;56.070;12.698;2022-12-20T19:28:30;50.93;;;34.50;;
14209;SDS011;7188;56.070;12.698;2022-12-20T19:30:57;61.10;;;34.03;;
14209;SDS011;7188;56.070;12.698;2022-12-20T19:33:29;61.13;;;34.47;;
14209;SDS011;7188;56.070;12.698;2022-12-20T19:35:55;54.97;;;31.80;;
